sensor_id;sensor_type;location;lat;lon;timestamp;P1;durP1;ratioP1;P2;durP2;ratioP2
3543;SDS011;1786;52.870;9.578;2022-10-20T00:00:18;1.73;;;1.63;;
3543;SDS011;1786;52.870;9.578;2022-10-20T00:02:44;5.13;;;2.37;;
3543;SDS011;1786;52.870;9.578;2022-10-20T00:05:11;8.60;;;2.17;;
3543;SDS011;1786;52.870;9.578;2022-10-20T00:07:37;7.03;;;2.70;;
3543;SDS011;1786;52.870;9.578;2022-10-20T00:10:04;8.50;;;1.57;;
3543;SDS011;1786;52.870;9.578;2022-10-20T00:12:31;3.03;;;1.80;;
3543;SDS011;1786;52.870;9.578;2022-10-20T00:14:58;4.57;;;2.60;;
3543;SDS011;1786;52.870;9.578;2022-10-20T00:17:24;5.60;;;2.17;;
3543;SDS011;1786;52.870;9.578;2022-10-20T00:19:51;5.43;;;2.50;;
3543;SDS011;1786;52.870;9.578;2022-10-20T00:22:18;4.40;;;1.80;;
3543;SDS011;1786;52.870;9.578;2022-10-20T00:24:44;3.93;;;2.30;;
3543;SDS011;1786;52.870;9.578;2022-10-20T00:27:11;2.23;;;2.03;;
3543;SDS011;1786;52.870;9.578;2022-10-20T00:29:38;2.03;;;1.93;;
3543;SDS011;1786;52.870;9.578;2022-10-20T00:32:04;6.30;;;1.83;;
3543;SDS011;1786;52.870;9.578;2022-10-20T00:34:31;4.13;;;2.37;;
3543;SDS011;1786;52.870;9.578;2022-10-20T00:36:58;3.27;;;2.00;;
3543;SDS011;1786;52.870;9.578;2022-10-20T00:39:24;11.70;;;2.47;;
3543;SDS011;1786;52.870;9.578;2022-10-20T00:41:51;2.13;;;1.90;;
3543;SDS011;1786;52.870;9.578;2022-10-20T00:47:17;2.93;;;1.93;;
3543;SDS011;1786;52.870;9.578;2022-10-20T00:49:47;6.53;;;1.80;;
3543;SDS011;1786;52.870;9.578;2022-10-20T00:52:16;2.33;;;2.13;;
3543;SDS011;1786;52.870;9.578;2022-10-20T00:54:45;3.20;;;1.50;;
3543;SDS011;1786;52.870;9.578;2022-10-20T00:57:13;2.27;;;1.70;;
3543;SDS011;1786;52.870;9.578;2022-10-20T00:59:39;4.70;;;1.73;;
3543;SDS011;1786;52.870;9.578;2022-10-20T01:02:06;2.10;;;1.57;;
3543;SDS011;1786;52.870;9.578;2022-10-20T01:04:35;2.53;;;2.07;;
3543;SDS011;1786;52.870;9.578;2022-10-20T01:07:03;6.73;;;2.00;;
3543;SDS011;1786;52.870;9.578;2022-10-20T01:09:30;6.03;;;2.07;;
3543;SDS011;1786;52.870;9.578;2022-10-20T01:12:13;2.10;;;1.77;;
3543;SDS011;1786;52.870;9.578;2022-10-20T01:17:23;6.00;;;2.63;;
3543;SDS011;1786;52.870;9.578;2022-10-20T01:20:02;9.20;;;2.20;;
3543;SDS011;1786;52.870;9.578;2022-10-20T01:25:45;6.50;;;1.43;;
3543;SDS011;1786;52.870;9.578;2022-10-20T01:28:25;2.30;;;2.17;;
3543;SDS011;1786;52.870;9.578;2022-10-20T01:31:00;1.40;;;1.40;;
3543;SDS011;1786;52.870;9.578;2022-10-20T01:33:40;2.00;;;1.37;;
3543;SDS011;1786;52.870;9.578;2022-10-20T01:36:21;2.80;;;1.63;;
3543;SDS011;1786;52.870;9.578;2022-10-20T01:39:29;1.87;;;1.73;;
3543;SDS011;1786;52.870;9.578;2022-10-20T01:42:10;1.87;;;1.53;;
3543;SDS011;1786;52.870;9.578;2022-10-20T01:44:41;6.77;;;2.00;;
3543;SDS011;1786;52.870;9.578;2022-10-20T01:47:09;6.10;;;1.30;;
3543;SDS011;1786;52.870;9.578;2022-10-20T01:49:41;3.93;;;1.30;;
3543;SDS011;1786;52.870;9.578;2022-10-20T01:52:10;2.93;;;1.70;;
3543;SDS011;1786;52.870;9.578;2022-10-20T01:54:37;3.10;;;1.40;;
3543;SDS011;1786;52.870;9.578;2022-10-20T02:00:11;8.53;;;1.97;;
3543;SDS011;1786;52.870;9.578;2022-10-20T02:08:57;2.50;;;1.63;;
3543;SDS011;1786;52.870;9.578;2022-10-20T02:14:10;2.60;;;1.63;;
3543;SDS011;1786;52.870;9.578;2022-10-20T02:16:41;1.70;;;1.13;;
3543;SDS011;1786;52.870;9.578;2022-10-20T02:19:13;4.13;;;1.67;;
3543;SDS011;1786;52.870;9.578;2022-10-20T02:21:43;3.83;;;1.87;;
3543;SDS011;1786;52.870;9.578;2022-10-20T02:24:11;2.37;;;1.50;;
3543;SDS011;1786;52.870;9.578;2022-10-20T02:26:41;2.50;;;1.70;;
3543;SDS011;1786;52.870;9.578;2022-10-20T02:29:13;6.87;;;1.50;;
3543;SDS011;1786;52.870;9.578;2022-10-20T02:31:43;6.33;;;1.73;;
3543;SDS011;1786;52.870;9.578;2022-10-20T02:34:10;1.77;;;1.70;;
3543;SDS011;1786;52.870;9.578;2022-10-20T02:36:38;2.63;;;1.73;;
3543;SDS011;1786;52.870;9.578;2022-10-20T02:39:07;2.53;;;1.90;;
3543;SDS011;1786;52.870;9.578;2022-10-20T02:41:34;1.70;;;1.50;;
3543;SDS011;1786;52.870;9.578;2022-10-20T02:44:01;3.20;;;1.33;;
3543;SDS011;1786;52.870;9.578;2022-10-20T02:46:28;5.13;;;1.47;;
3543;SDS011;1786;52.870;9.578;2022-10-20T02:48:55;1.53;;;1.37;;
3543;SDS011;1786;52.870;9.578;2022-10-20T02:51:21;3.03;;;1.40;;
3543;SDS011;1786;52.870;9.578;2022-10-20T02:53:49;3.57;;;1.73;;
3543;SDS011;1786;52.870;9.578;2022-10-20T02:56:16;2.70;;;1.77;;
3543;SDS011;1786;52.870;9.578;2022-10-20T02:58:43;7.73;;;1.70;;
3543;SDS011;1786;52.870;9.578;2022-10-20T03:01:10;1.43;;;1.33;;
3543;SDS011;1786;52.870;9.578;2022-10-20T03:03:36;2.10;;;2.00;;
3543;SDS011;1786;52.870;9.578;2022-10-20T03:06:07;2.10;;;1.30;;
3543;SDS011;1786;52.870;9.578;2022-10-20T03:08:37;1.37;;;1.27;;
3543;SDS011;1786;52.870;9.578;2022-10-20T03:11:04;4.83;;;1.40;;
3543;SDS011;1786;52.870;9.578;2022-10-20T03:13:31;1.50;;;1.40;;
3543;SDS011;1786;52.870;9.578;2022-10-20T03:15:58;2.60;;;1.40;;
3543;SDS011;1786;52.870;9.578;2022-10-20T03:18:25;3.27;;;1.67;;
3543;SDS011;1786;52.870;9.578;2022-10-20T03:20:52;1.83;;;1.73;;
3543;SDS011;1786;52.870;9.578;2022-10-20T03:23:19;1.97;;;1.33;;
3543;SDS011;1786;52.870;9.578;2022-10-20T03:25:47;1.50;;;1.40;;
3543;SDS011;1786;52.870;9.578;2022-10-20T03:28:14;2.00;;;1.50;;
3543;SDS011;1786;52.870;9.578;2022-10-20T03:30:40;1.67;;;1.57;;
3543;SDS011;1786;52.870;9.578;2022-10-20T03:33:07;4.70;;;1.70;;
3543;SDS011;1786;52.870;9.578;2022-10-20T03:35:33;8.57;;;2.10;;
3543;SDS011;1786;52.870;9.578;2022-10-20T03:38:00;4.13;;;2.20;;
3543;SDS011;1786;52.870;9.578;2022-10-20T03:40:27;1.80;;;1.47;;
3543;SDS011;1786;52.870;9.578;2022-10-20T03:42:53;2.63;;;1.73;;
3543;SDS011;1786;52.870;9.578;2022-10-20T03:45:20;7.17;;;2.00;;
3543;SDS011;1786;52.870;9.578;2022-10-20T03:47:47;2.87;;;1.60;;
3543;SDS011;1786;52.870;9.578;2022-10-20T03:50:13;3.07;;;1.80;;
3543;SDS011;1786;52.870;9.578;2022-10-20T03:52:41;7.40;;;2.00;;
3543;SDS011;1786;52.870;9.578;2022-10-20T03:55:08;2.27;;;1.97;;
3543;SDS011;1786;52.870;9.578;2022-10-20T03:57:35;4.00;;;1.70;;
3543;SDS011;1786;52.870;9.578;2022-10-20T04:00:02;2.47;;;2.07;;
3543;SDS011;1786;52.870;9.578;2022-10-20T04:02:37;4.50;;;1.90;;
3543;SDS011;1786;52.870;9.578;2022-10-20T04:05:07;3.67;;;2.10;;
3543;SDS011;1786;52.870;9.578;2022-10-20T04:07:34;2.23;;;2.10;;
3543;SDS011;1786;52.870;9.578;2022-10-20T04:10:01;2.63;;;2.00;;
3543;SDS011;1786;52.870;9.578;2022-10-20T04:12:28;1.70;;;1.60;;
3543;SDS011;1786;52.870;9.578;2022-10-20T04:14:55;3.40;;;2.20;;
3543;SDS011;1786;52.870;9.578;2022-10-20T04:17:22;4.63;;;2.20;;
3543;SDS011;1786;52.870;9.578;2022-10-20T04:19:49;2.47;;;2.30;;
3543;SDS011;1786;52.870;9.578;2022-10-20T04:22:15;2.70;;;1.90;;
3543;SDS011;1786;52.870;9.578;2022-10-20T04:24:42;5.00;;;2.03;;
3543;SDS011;1786;52.870;9.578;2022-10-20T04:27:08;2.07;;;1.93;;
3543;SDS011;1786;52.870;9.578;2022-10-20T04:29:35;3.70;;;2.57;;
3543;SDS011;1786;52.870;9.578;2022-10-20T04:32:02;3.80;;;2.10;;
3543;SDS011;1786;52.870;9.578;2022-10-20T04:34:28;2.80;;;2.60;;
3543;SDS011;1786;52.870;9.578;2022-10-20T04:36:55;2.50;;;2.30;;
3543;SDS011;1786;52.870;9.578;2022-10-20T04:39:22;3.77;;;2.33;;
3543;SDS011;1786;52.870;9.578;2022-10-20T04:41:50;2.50;;;2.40;;
3543;SDS011;1786;52.870;9.578;2022-10-20T04:44:17;2.20;;;1.90;;
3543;SDS011;1786;52.870;9.578;2022-10-20T04:46:44;8.90;;;2.70;;
3543;SDS011;1786;52.870;9.578;2022-10-20T04:49:10;7.30;;;2.77;;
3543;SDS011;1786;52.870;9.578;2022-10-20T04:51:37;2.63;;;2.53;;
3543;SDS011;1786;52.870;9.578;2022-10-20T04:54:04;2.63;;;2.53;;
3543;SDS011;1786;52.870;9.578;2022-10-20T04:56:35;3.40;;;2.67;;
3543;SDS011;1786;52.870;9.578;2022-10-20T04:59:02;5.13;;;2.40;;
3543;SDS011;1786;52.870;9.578;2022-10-20T05:01:32;5.40;;;2.50;;
3543;SDS011;1786;52.870;9.578;2022-10-20T05:03:59;2.90;;;2.70;;
3543;SDS011;1786;52.870;9.578;2022-10-20T05:06:27;2.30;;;2.20;;
3543;SDS011;1786;52.870;9.578;2022-10-20T05:08:57;3.63;;;2.80;;
3543;SDS011;1786;52.870;9.578;2022-10-20T05:11:27;2.70;;;2.50;;
3543;SDS011;1786;52.870;9.578;2022-10-20T05:13:54;4.60;;;2.60;;
3543;SDS011;1786;52.870;9.578;2022-10-20T05:16:21;3.50;;;2.83;;
3543;SDS011;1786;52.870;9.578;2022-10-20T05:18:48;4.13;;;3.00;;
3543;SDS011;1786;52.870;9.578;2022-10-20T05:21:18;5.73;;;2.87;;
3543;SDS011;1786;52.870;9.578;2022-10-20T05:23:48;3.53;;;3.23;;
3543;SDS011;1786;52.870;9.578;2022-10-20T05:26:16;2.77;;;2.67;;
3543;SDS011;1786;52.870;9.578;2022-10-20T05:28:45;3.47;;;3.23;;
3543;SDS011;1786;52.870;9.578;2022-10-20T05:31:14;6.17;;;4.00;;
3543;SDS011;1786;52.870;9.578;2022-10-20T05:33:44;10.00;;;3.97;;
3543;SDS011;1786;52.870;9.578;2022-10-20T05:36:12;4.13;;;3.73;;
3543;SDS011;1786;52.870;9.578;2022-10-20T05:38:46;7.57;;;4.33;;
3543;SDS011;1786;52.870;9.578;2022-10-20T05:41:15;6.00;;;4.00;;
3543;SDS011;1786;52.870;9.578;2022-10-20T05:43:47;6.40;;;3.97;;
3543;SDS011;1786;52.870;9.578;2022-10-20T05:46:15;4.33;;;3.40;;
3543;SDS011;1786;52.870;9.578;2022-10-20T05:48:43;4.00;;;3.53;;
3543;SDS011;1786;52.870;9.578;2022-10-20T05:51:12;5.00;;;3.67;;
3543;SDS011;1786;52.870;9.578;2022-10-20T05:53:41;3.97;;;3.67;;
3543;SDS011;1786;52.870;9.578;2022-10-20T05:56:11;6.63;;;3.37;;
3543;SDS011;1786;52.870;9.578;2022-10-20T05:58:40;5.03;;;3.60;;
3543;SDS011;1786;52.870;9.578;2022-10-20T06:03:52;3.63;;;3.40;;
3543;SDS011;1786;52.870;9.578;2022-10-20T06:06:24;6.20;;;3.40;;
3543;SDS011;1786;52.870;9.578;2022-10-20T06:08:53;4.90;;;3.60;;
3543;SDS011;1786;52.870;9.578;2022-10-20T06:11:21;3.60;;;3.30;;
3543;SDS011;1786;52.870;9.578;2022-10-20T06:13:48;6.43;;;3.47;;
3543;SDS011;1786;52.870;9.578;2022-10-20T06:16:22;3.30;;;3.10;;
3543;SDS011;1786;52.870;9.578;2022-10-20T06:18:50;3.43;;;3.13;;
3543;SDS011;1786;52.870;9.578;2022-10-20T06:21:19;10.50;;;3.43;;
3543;SDS011;1786;52.870;9.578;2022-10-20T06:23:47;3.83;;;3.53;;
3543;SDS011;1786;52.870;9.578;2022-10-20T06:26:15;7.37;;;3.40;;
3543;SDS011;1786;52.870;9.578;2022-10-20T06:28:44;5.67;;;3.87;;
3543;SDS011;1786;52.870;9.578;2022-10-20T06:31:13;6.73;;;4.20;;
3543;SDS011;1786;52.870;9.578;2022-10-20T06:33:42;16.67;;;4.10;;
3543;SDS011;1786;52.870;9.578;2022-10-20T06:36:10;4.87;;;4.30;;
3543;SDS011;1786;52.870;9.578;2022-10-20T06:38:37;5.60;;;3.73;;
3543;SDS011;1786;52.870;9.578;2022-10-20T06:41:06;6.80;;;3.73;;
3543;SDS011;1786;52.870;9.578;2022-10-20T06:43:34;6.03;;;4.20;;
3543;SDS011;1786;52.870;9.578;2022-10-20T06:46:02;5.00;;;4.50;;
3543;SDS011;1786;52.870;9.578;2022-10-20T06:48:31;6.80;;;3.63;;
3543;SDS011;1786;52.870;9.578;2022-10-20T06:50:59;3.80;;;3.50;;
3543;SDS011;1786;52.870;9.578;2022-10-20T06:53:34;4.30;;;3.90;;
3543;SDS011;1786;52.870;9.578;2022-10-20T06:56:02;5.90;;;4.20;;
3543;SDS011;1786;52.870;9.578;2022-10-20T06:58:32;9.20;;;3.63;;
3543;SDS011;1786;52.870;9.578;2022-10-20T07:01:42;6.80;;;3.63;;
3543;SDS011;1786;52.870;9.578;2022-10-20T07:03:53;3.20;;;2.90;;
3543;SDS011;1786;52.870;9.578;2022-10-20T07:06:25;9.13;;;3.70;;
3543;SDS011;1786;52.870;9.578;2022-10-20T07:08:54;6.00;;;3.23;;
3543;SDS011;1786;52.870;9.578;2022-10-20T07:11:23;3.73;;;3.50;;
3543;SDS011;1786;52.870;9.578;2022-10-20T07:13:52;5.40;;;3.70;;
3543;SDS011;1786;52.870;9.578;2022-10-20T07:16:20;6.93;;;3.60;;
3543;SDS011;1786;52.870;9.578;2022-10-20T07:18:49;3.33;;;2.57;;
3543;SDS011;1786;52.870;9.578;2022-10-20T07:21:16;3.70;;;3.40;;
3543;SDS011;1786;52.870;9.578;2022-10-20T07:23:45;5.73;;;2.90;;
3543;SDS011;1786;52.870;9.578;2022-10-20T07:28:44;2.97;;;2.87;;
3543;SDS011;1786;52.870;9.578;2022-10-20T07:31:27;3.27;;;3.03;;
3543;SDS011;1786;52.870;9.578;2022-10-20T07:33:59;6.87;;;3.00;;
3543;SDS011;1786;52.870;9.578;2022-10-20T07:36:42;4.40;;;3.30;;
3543;SDS011;1786;52.870;9.578;2022-10-20T07:39:10;5.53;;;3.23;;
3543;SDS011;1786;52.870;9.578;2022-10-20T07:41:38;5.37;;;3.00;;
3543;SDS011;1786;52.870;9.578;2022-10-20T07:44:05;7.17;;;3.10;;
3543;SDS011;1786;52.870;9.578;2022-10-20T07:46:33;4.60;;;3.40;;
3543;SDS011;1786;52.870;9.578;2022-10-20T07:49:00;3.33;;;3.00;;
3543;SDS011;1786;52.870;9.578;2022-10-20T07:51:46;3.33;;;2.90;;
3543;SDS011;1786;52.870;9.578;2022-10-20T07:54:13;3.20;;;2.90;;
3543;SDS011;1786;52.870;9.578;2022-10-20T07:56:42;3.80;;;3.30;;
3543;SDS011;1786;52.870;9.578;2022-10-20T07:59:09;5.03;;;2.83;;
3543;SDS011;1786;52.870;9.578;2022-10-20T08:01:38;5.20;;;3.20;;
3543;SDS011;1786;52.870;9.578;2022-10-20T08:04:05;3.73;;;3.53;;
3543;SDS011;1786;52.870;9.578;2022-10-20T08:06:32;7.80;;;2.93;;
3543;SDS011;1786;52.870;9.578;2022-10-20T08:08:59;2.97;;;2.77;;
3543;SDS011;1786;52.870;9.578;2022-10-20T08:11:26;3.07;;;2.57;;
3543;SDS011;1786;52.870;9.578;2022-10-20T08:13:53;2.93;;;2.20;;
3543;SDS011;1786;52.870;9.578;2022-10-20T08:16:20;2.57;;;2.37;;
3543;SDS011;1786;52.870;9.578;2022-10-20T08:18:56;2.10;;;2.00;;
3543;SDS011;1786;52.870;9.578;2022-10-20T08:21:27;3.10;;;2.10;;
3543;SDS011;1786;52.870;9.578;2022-10-20T08:23:54;2.90;;;2.23;;
3543;SDS011;1786;52.870;9.578;2022-10-20T08:26:22;2.90;;;1.70;;
3543;SDS011;1786;52.870;9.578;2022-10-20T08:28:51;2.60;;;2.40;;
3543;SDS011;1786;52.870;9.578;2022-10-20T08:31:19;6.67;;;2.33;;
3543;SDS011;1786;52.870;9.578;2022-10-20T08:33:46;6.13;;;2.67;;
3543;SDS011;1786;52.870;9.578;2022-10-20T08:36:18;3.70;;;2.50;;
3543;SDS011;1786;52.870;9.578;2022-10-20T08:38:45;4.60;;;2.37;;
3543;SDS011;1786;52.870;9.578;2022-10-20T08:41:17;2.13;;;1.97;;
3543;SDS011;1786;52.870;9.578;2022-10-20T08:43:49;2.20;;;2.10;;
3543;SDS011;1786;52.870;9.578;2022-10-20T08:46:19;2.17;;;1.90;;
3543;SDS011;1786;52.870;9.578;2022-10-20T08:48:48;3.17;;;1.90;;
3543;SDS011;1786;52.870;9.578;2022-10-20T08:51:26;3.73;;;2.20;;
3543;SDS011;1786;52.870;9.578;2022-10-20T08:53:58;1.90;;;1.80;;
3543;SDS011;1786;52.870;9.578;2022-10-20T08:56:28;3.97;;;2.30;;
3543;SDS011;1786;52.870;9.578;2022-10-20T08:58:58;4.10;;;2.23;;
3543;SDS011;1786;52.870;9.578;2022-10-20T09:01:26;2.33;;;2.00;;
3543;SDS011;1786;52.870;9.578;2022-10-20T09:03:56;6.80;;;2.37;;
3543;SDS011;1786;52.870;9.578;2022-10-20T09:06:25;2.43;;;2.23;;
3543;SDS011;1786;52.870;9.578;2022-10-20T09:08:52;2.97;;;2.50;;
3543;SDS011;1786;52.870;9.578;2022-10-20T09:11:22;6.23;;;3.30;;
3543;SDS011;1786;52.870;9.578;2022-10-20T09:13:52;4.40;;;3.30;;
3543;SDS011;1786;52.870;9.578;2022-10-20T09:16:29;4.07;;;3.40;;
3543;SDS011;1786;52.870;9.578;2022-10-20T09:19:20;2.93;;;2.73;;
3543;SDS011;1786;52.870;9.578;2022-10-20T09:21:50;2.47;;;2.37;;
3543;SDS011;1786;52.870;9.578;2022-10-20T09:24:22;3.73;;;2.37;;
3543;SDS011;1786;52.870;9.578;2022-10-20T09:26:52;4.80;;;1.77;;
3543;SDS011;1786;52.870;9.578;2022-10-20T09:29:33;3.67;;;1.90;;
3543;SDS011;1786;52.870;9.578;2022-10-20T09:32:02;2.50;;;1.73;;
3543;SDS011;1786;52.870;9.578;2022-10-20T09:35:35;1.87;;;1.77;;
3543;SDS011;1786;52.870;9.578;2022-10-20T09:40:42;7.30;;;2.67;;
3543;SDS011;1786;52.870;9.578;2022-10-20T09:43:15;1.73;;;1.63;;
3543;SDS011;1786;52.870;9.578;2022-10-20T09:45:48;3.60;;;1.97;;
3543;SDS011;1786;52.870;9.578;2022-10-20T09:50:53;3.37;;;2.30;;
3543;SDS011;1786;52.870;9.578;2022-10-20T09:53:26;2.37;;;2.10;;
3543;SDS011;1786;52.870;9.578;2022-10-20T09:55:57;4.30;;;2.23;;
3543;SDS011;1786;52.870;9.578;2022-10-20T09:58:28;2.10;;;1.77;;
3543;SDS011;1786;52.870;9.578;2022-10-20T10:01:19;2.50;;;2.30;;
3543;SDS011;1786;52.870;9.578;2022-10-20T10:03:46;2.03;;;1.93;;
3543;SDS011;1786;52.870;9.578;2022-10-20T10:09:23;2.30;;;2.20;;
3543;SDS011;1786;52.870;9.578;2022-10-20T10:11:57;5.23;;;2.17;;
3543;SDS011;1786;52.870;9.578;2022-10-20T10:14:27;10.87;;;2.87;;
3543;SDS011;1786;52.870;9.578;2022-10-20T10:16:55;3.37;;;2.20;;
3543;SDS011;1786;52.870;9.578;2022-10-20T10:19:24;4.30;;;2.80;;
3543;SDS011;1786;52.870;9.578;2022-10-20T10:21:54;4.70;;;2.53;;
3543;SDS011;1786;52.870;9.578;2022-10-20T10:24:32;7.20;;;2.53;;
3543;SDS011;1786;52.870;9.578;2022-10-20T10:29:56;4.80;;;2.50;;
3543;SDS011;1786;52.870;9.578;2022-10-20T10:32:53;3.33;;;1.93;;
3543;SDS011;1786;52.870;9.578;2022-10-20T10:38:03;3.47;;;2.27;;
3543;SDS011;1786;52.870;9.578;2022-10-20T10:40:31;3.33;;;2.73;;
3543;SDS011;1786;52.870;9.578;2022-10-20T10:43:06;5.77;;;3.40;;
3543;SDS011;1786;52.870;9.578;2022-10-20T10:45:56;2.30;;;2.20;;
3543;SDS011;1786;52.870;9.578;2022-10-20T10:51:19;2.10;;;2.00;;
3543;SDS011;1786;52.870;9.578;2022-10-20T10:56:53;2.97;;;2.37;;
3543;SDS011;1786;52.870;9.578;2022-10-20T10:59:32;3.50;;;2.80;;
3543;SDS011;1786;52.870;9.578;2022-10-20T11:07:59;5.47;;;2.87;;
3543;SDS011;1786;52.870;9.578;2022-10-20T11:10:41;3.90;;;3.70;;
3543;SDS011;1786;52.870;9.578;2022-10-20T11:13:38;3.30;;;3.10;;
3543;SDS011;1786;52.870;9.578;2022-10-20T11:19:06;5.47;;;3.70;;
3543;SDS011;1786;52.870;9.578;2022-10-20T11:27:13;3.87;;;3.50;;
3543;SDS011;1786;52.870;9.578;2022-10-20T11:29:56;4.10;;;3.80;;
3543;SDS011;1786;52.870;9.578;2022-10-20T11:33:13;3.90;;;3.60;;
3543;SDS011;1786;52.870;9.578;2022-10-20T11:35:33;4.73;;;4.07;;
3543;SDS011;1786;52.870;9.578;2022-10-20T11:40:57;4.97;;;4.40;;
3543;SDS011;1786;52.870;9.578;2022-10-20T11:43:36;8.80;;;4.47;;
3543;SDS011;1786;52.870;9.578;2022-10-20T11:46:09;5.20;;;4.40;;
3543;SDS011;1786;52.870;9.578;2022-10-20T11:48:50;6.73;;;4.23;;
3543;SDS011;1786;52.870;9.578;2022-10-20T11:59:53;5.80;;;4.73;;
3543;SDS011;1786;52.870;9.578;2022-10-20T12:11:05;5.73;;;5.20;;
3543;SDS011;1786;52.870;9.578;2022-10-20T12:14:02;6.50;;;5.40;;
3543;SDS011;1786;52.870;9.578;2022-10-20T12:19:20;5.00;;;4.60;;
3543;SDS011;1786;52.870;9.578;2022-10-20T12:34:47;5.77;;;5.27;;
3543;SDS011;1786;52.870;9.578;2022-10-20T12:37:17;6.10;;;5.50;;
3543;SDS011;1786;52.870;9.578;2022-10-20T12:39:51;5.83;;;5.27;;
3543;SDS011;1786;52.870;9.578;2022-10-20T12:42:25;5.90;;;4.60;;
3543;SDS011;1786;52.870;9.578;2022-10-20T12:45:00;13.37;;;5.77;;
3543;SDS011;1786;52.870;9.578;2022-10-20T12:47:30;6.00;;;5.40;;
3543;SDS011;1786;52.870;9.578;2022-10-20T12:50:46;5.27;;;4.67;;
3543;SDS011;1786;52.870;9.578;2022-10-20T12:52:53;5.67;;;5.17;;
3543;SDS011;1786;52.870;9.578;2022-10-20T12:55:21;6.20;;;5.70;;
3543;SDS011;1786;52.870;9.578;2022-10-20T13:01:07;5.40;;;4.90;;
3543;SDS011;1786;52.870;9.578;2022-10-20T13:03:46;8.80;;;3.93;;
3543;SDS011;1786;52.870;9.578;2022-10-20T13:09:10;5.20;;;4.80;;
3543;SDS011;1786;52.870;9.578;2022-10-20T13:11:53;5.70;;;5.20;;
3543;SDS011;1786;52.870;9.578;2022-10-20T13:14:33;6.40;;;5.00;;
3543;SDS011;1786;52.870;9.578;2022-10-20T13:17:15;5.30;;;4.73;;
3543;SDS011;1786;52.870;9.578;2022-10-20T13:19:50;4.53;;;4.23;;
3543;SDS011;1786;52.870;9.578;2022-10-20T13:22:35;6.10;;;5.10;;
3543;SDS011;1786;52.870;9.578;2022-10-20T13:25:36;9.97;;;4.70;;
3543;SDS011;1786;52.870;9.578;2022-10-20T13:33:34;5.03;;;4.63;;
3543;SDS011;1786;52.870;9.578;2022-10-20T13:39:12;5.40;;;3.97;;
3543;SDS011;1786;52.870;9.578;2022-10-20T13:41:50;6.90;;;3.53;;
3543;SDS011;1786;52.870;9.578;2022-10-20T13:44:31;4.67;;;4.03;;
3543;SDS011;1786;52.870;9.578;2022-10-20T13:50:15;5.73;;;3.00;;
3543;SDS011;1786;52.870;9.578;2022-10-20T13:52:48;15.83;;;4.10;;
3543;SDS011;1786;52.870;9.578;2022-10-20T13:55:22;3.30;;;3.10;;
3543;SDS011;1786;52.870;9.578;2022-10-20T13:57:53;4.83;;;3.27;;
3543;SDS011;1786;52.870;9.578;2022-10-20T14:00:26;21.47;;;3.20;;
3543;SDS011;1786;52.870;9.578;2022-10-20T14:03:01;4.20;;;3.40;;
3543;SDS011;1786;52.870;9.578;2022-10-20T14:05:35;4.17;;;3.73;;
3543;SDS011;1786;52.870;9.578;2022-10-20T14:08:06;4.10;;;3.27;;
3543;SDS011;1786;52.870;9.578;2022-10-20T14:10:37;3.83;;;3.33;;
3543;SDS011;1786;52.870;9.578;2022-10-20T14:13:12;3.10;;;2.80;;
3543;SDS011;1786;52.870;9.578;2022-10-20T14:15:49;2.73;;;2.53;;
3543;SDS011;1786;52.870;9.578;2022-10-20T14:18:23;3.80;;;3.13;;
3543;SDS011;1786;52.870;9.578;2022-10-20T14:21:01;4.70;;;2.87;;
3543;SDS011;1786;52.870;9.578;2022-10-20T14:23:34;6.17;;;3.03;;
3543;SDS011;1786;52.870;9.578;2022-10-20T14:26:05;3.77;;;3.03;;
3543;SDS011;1786;52.870;9.578;2022-10-20T14:28:37;9.00;;;2.77;;
3543;SDS011;1786;52.870;9.578;2022-10-20T14:31:05;4.67;;;2.33;;
3543;SDS011;1786;52.870;9.578;2022-10-20T14:33:34;6.50;;;2.93;;
3543;SDS011;1786;52.870;9.578;2022-10-20T14:36:11;8.63;;;3.60;;
3543;SDS011;1786;52.870;9.578;2022-10-20T14:38:45;3.23;;;2.40;;
3543;SDS011;1786;52.870;9.578;2022-10-20T14:41:22;2.60;;;2.40;;
3543;SDS011;1786;52.870;9.578;2022-10-20T14:43:56;3.40;;;2.20;;
3543;SDS011;1786;52.870;9.578;2022-10-20T14:49:15;2.47;;;2.30;;
3543;SDS011;1786;52.870;9.578;2022-10-20T14:51:57;3.43;;;2.10;;
3543;SDS011;1786;52.870;9.578;2022-10-20T14:59:27;5.70;;;2.40;;
3543;SDS011;1786;52.870;9.578;2022-10-20T15:04:39;3.60;;;2.60;;
3543;SDS011;1786;52.870;9.578;2022-10-20T15:07:12;2.43;;;2.23;;
3543;SDS011;1786;52.870;9.578;2022-10-20T15:09:42;9.43;;;2.40;;
3543;SDS011;1786;52.870;9.578;2022-10-20T15:12:20;3.20;;;2.57;;
3543;SDS011;1786;52.870;9.578;2022-10-20T15:14:51;2.57;;;2.37;;
3543;SDS011;1786;52.870;9.578;2022-10-20T15:20:35;9.07;;;3.00;;
3543;SDS011;1786;52.870;9.578;2022-10-20T15:23:08;3.50;;;2.63;;
3543;SDS011;1786;52.870;9.578;2022-10-20T15:25:45;4.87;;;2.63;;
3543;SDS011;1786;52.870;9.578;2022-10-20T15:30:51;6.10;;;3.13;;
3543;SDS011;1786;52.870;9.578;2022-10-20T15:33:17;6.80;;;2.93;;
3543;SDS011;1786;52.870;9.578;2022-10-20T15:35:44;3.33;;;3.03;;
3543;SDS011;1786;52.870;9.578;2022-10-20T15:38:12;5.30;;;2.63;;
3543;SDS011;1786;52.870;9.578;2022-10-20T15:40:39;7.67;;;3.03;;
3543;SDS011;1786;52.870;9.578;2022-10-20T15:43:14;5.47;;;3.10;;
3543;SDS011;1786;52.870;9.578;2022-10-20T15:45:43;6.37;;;2.90;;
3543;SDS011;1786;52.870;9.578;2022-10-20T15:48:18;2.70;;;2.60;;
3543;SDS011;1786;52.870;9.578;2022-10-20T15:50:45;2.80;;;2.60;;
3543;SDS011;1786;52.870;9.578;2022-10-20T15:53:12;3.73;;;3.40;;
3543;SDS011;1786;52.870;9.578;2022-10-20T15:55:42;7.43;;;4.20;;
3543;SDS011;1786;52.870;9.578;2022-10-20T15:58:09;3.57;;;3.23;;
3543;SDS011;1786;52.870;9.578;2022-10-20T16:00:36;3.47;;;3.17;;
3543;SDS011;1786;52.870;9.578;2022-10-20T16:03:03;7.17;;;3.37;;
3543;SDS011;1786;52.870;9.578;2022-10-20T16:05:31;4.43;;;2.97;;
3543;SDS011;1786;52.870;9.578;2022-10-20T16:07:58;5.80;;;3.23;;
3543;SDS011;1786;52.870;9.578;2022-10-20T16:10:25;3.50;;;3.37;;
3543;SDS011;1786;52.870;9.578;2022-10-20T16:12:55;3.40;;;3.10;;
3543;SDS011;1786;52.870;9.578;2022-10-20T16:15:23;4.43;;;4.03;;
3543;SDS011;1786;52.870;9.578;2022-10-20T16:17:56;9.93;;;4.70;;
3543;SDS011;1786;52.870;9.578;2022-10-20T16:20:23;3.17;;;2.97;;
3543;SDS011;1786;52.870;9.578;2022-10-20T16:22:50;3.30;;;2.97;;
3543;SDS011;1786;52.870;9.578;2022-10-20T16:25:17;12.77;;;4.37;;
3543;SDS011;1786;52.870;9.578;2022-10-20T16:27:44;5.17;;;4.20;;
3543;SDS011;1786;52.870;9.578;2022-10-20T16:30:11;7.77;;;5.87;;
3543;SDS011;1786;52.870;9.578;2022-10-20T16:32:38;27.77;;;11.83;;
3543;SDS011;1786;52.870;9.578;2022-10-20T16:35:05;10.70;;;6.70;;
3543;SDS011;1786;52.870;9.578;2022-10-20T16:37:32;6.50;;;4.60;;
3543;SDS011;1786;52.870;9.578;2022-10-20T16:39:58;5.67;;;4.33;;
3543;SDS011;1786;52.870;9.578;2022-10-20T16:42:26;7.50;;;5.70;;
3543;SDS011;1786;52.870;9.578;2022-10-20T16:44:55;4.33;;;4.00;;
3543;SDS011;1786;52.870;9.578;2022-10-20T16:47:23;5.90;;;4.50;;
3543;SDS011;1786;52.870;9.578;2022-10-20T16:49:51;7.03;;;5.50;;
3543;SDS011;1786;52.870;9.578;2022-10-20T16:52:18;14.60;;;5.47;;
3543;SDS011;1786;52.870;9.578;2022-10-20T16:54:45;7.33;;;4.60;;
3543;SDS011;1786;52.870;9.578;2022-10-20T16:57:12;7.57;;;4.57;;
3543;SDS011;1786;52.870;9.578;2022-10-20T16:59:40;4.63;;;4.27;;
3543;SDS011;1786;52.870;9.578;2022-10-20T17:02:08;7.03;;;4.30;;
3543;SDS011;1786;52.870;9.578;2022-10-20T17:04:37;6.40;;;4.00;;
3543;SDS011;1786;52.870;9.578;2022-10-20T17:07:04;14.83;;;3.90;;
3543;SDS011;1786;52.870;9.578;2022-10-20T17:09:31;4.87;;;4.40;;
3543;SDS011;1786;52.870;9.578;2022-10-20T17:11:59;4.57;;;4.27;;
3543;SDS011;1786;52.870;9.578;2022-10-20T17:14:26;6.70;;;4.17;;
3543;SDS011;1786;52.870;9.578;2022-10-20T17:16:52;5.33;;;4.83;;
3543;SDS011;1786;52.870;9.578;2022-10-20T17:19:19;7.43;;;5.27;;
3543;SDS011;1786;52.870;9.578;2022-10-20T17:21:46;32.57;;;5.50;;
3543;SDS011;1786;52.870;9.578;2022-10-20T17:24:15;6.20;;;4.60;;
3543;SDS011;1786;52.870;9.578;2022-10-20T17:26:42;10.40;;;5.83;;
3543;SDS011;1786;52.870;9.578;2022-10-20T17:29:09;5.20;;;4.90;;
3543;SDS011;1786;52.870;9.578;2022-10-20T17:31:36;5.43;;;5.13;;
3543;SDS011;1786;52.870;9.578;2022-10-20T17:34:03;5.77;;;5.03;;
3543;SDS011;1786;52.870;9.578;2022-10-20T17:36:30;5.40;;;5.00;;
3543;SDS011;1786;52.870;9.578;2022-10-20T17:39:05;8.27;;;5.47;;
3543;SDS011;1786;52.870;9.578;2022-10-20T17:41:35;7.00;;;5.50;;
3543;SDS011;1786;52.870;9.578;2022-10-20T17:44:02;18.10;;;6.83;;
3543;SDS011;1786;52.870;9.578;2022-10-20T17:46:29;6.40;;;5.87;;